Littlefork, Minnesota
Current Conditions -  °F | °C
As of 8:55 PM on Friday 21 Nov 2014 (Local Time) from KINL Reporting Station
Clear Clear  
Wind Chill: 18°   Ceiling: Unl
Heat Index: 27°   Visibility: 10mi
Dew Point: 20°   Wind: 9mph
Humidity: 75%   Direction: 200°SSW
Pressure: 29.6"   Gusts: NA
Location:  48.4°N, 93.56°W
Report Text: KINL 220255Z AUTO 20008KT 10SM CLR M03/M07 A2960 RMK AO2 SLP043 T10281067 57012
Loading
Personal Weather Stations






























Interactive Weather Map New forecast layout! Learn more

10-Day Weather Forecast

Advertisements
Track Severe Weather on mobile